createdAt,value
2019-04-04T00:00:39.139Z,4.70
2019-04-04T00:03:12.768Z,4.80
2019-04-04T00:05:46.452Z,4.80
2019-04-04T00:08:20.148Z,4.80
2019-04-04T00:10:53.875Z,4.80
2019-04-04T00:13:27.497Z,4.80
2019-04-04T00:16:01.236Z,4.90
2019-04-04T00:18:34.929Z,5.00
2019-04-04T00:21:08.660Z,4.90
2019-04-04T00:23:42.285Z,4.90
2019-04-04T00:26:15.934Z,5.00
2019-04-04T00:28:49.593Z,5.00
2019-04-04T00:31:23.288Z,4.90
2019-04-04T00:33:56.952Z,5.00
2019-04-04T00:36:33.822Z,5.00
2019-04-04T00:39:09.482Z,5.00
2019-04-04T00:41:44.954Z,5.00
2019-04-04T00:44:19.093Z,5.00
2019-04-04T00:46:52.842Z,5.10
2019-04-04T00:49:26.537Z,5.10
2019-04-04T00:52:00.214Z,5.20
2019-04-04T00:54:33.897Z,5.10
2019-04-04T00:57:07.563Z,5.20
2019-04-04T00:59:41.061Z,5.20
2019-04-04T01:02:14.715Z,5.20
2019-04-04T01:04:48.455Z,5.20
2019-04-04T01:07:22.015Z,5.20
2019-04-04T01:09:56.216Z,5.20
2019-04-04T01:12:29.844Z,5.20
2019-04-04T01:15:03.996Z,5.20
2019-04-04T01:17:37.695Z,5.20
2019-04-04T01:20:11.956Z,5.20
2019-04-04T01:22:45.690Z,5.20
2019-04-04T01:25:19.379Z,5.20
2019-04-04T01:27:53.086Z,5.20
2019-04-04T01:30:26.742Z,5.20
2019-04-04T01:33:03.477Z,5.30
2019-04-04T01:35:36.359Z,5.20
2019-04-04T01:38:09.988Z,5.20
2019-04-04T01:40:43.652Z,5.20
2019-04-04T01:43:17.355Z,5.10
2019-04-04T01:45:51.087Z,5.10
2019-04-04T01:48:24.702Z,5.10
2019-04-04T01:50:58.421Z,5.10
2019-04-04T01:53:31.965Z,5.20
2019-04-04T01:56:06.803Z,5.30
2019-04-04T01:58:41.742Z,5.30
2019-04-04T02:01:16.633Z,5.30
2019-04-04T02:03:51.830Z,5.30
2019-04-04T02:06:28.383Z,5.30
2019-04-04T02:09:02.855Z,5.30
2019-04-04T02:11:37.616Z,5.30
2019-04-04T02:14:11.879Z,5.30
2019-04-04T02:16:50.775Z,5.30
2019-04-04T02:19:24.550Z,5.30
2019-04-04T02:21:57.894Z,5.20
2019-04-04T02:24:32.436Z,5.20
2019-04-04T02:27:06.945Z,5.20
2019-04-04T02:29:41.838Z,5.20
2019-04-04T02:32:17.805Z,5.20
2019-04-04T02:34:51.513Z,5.20
2019-04-04T02:37:25.601Z,5.20
2019-04-04T02:39:59.263Z,5.20
2019-04-04T02:42:33.150Z,5.20
2019-04-04T02:45:07.452Z,5.20
2019-04-04T02:47:41.205Z,5.20
2019-04-04T02:50:14.882Z,5.20
2019-04-04T02:52:48.539Z,5.20
2019-04-04T02:55:22.198Z,5.10
2019-04-04T02:57:55.891Z,5.10
2019-04-04T03:00:29.623Z,5.10
2019-04-04T03:03:05.486Z,5.10
2019-04-04T03:05:38.706Z,5.10
2019-04-04T03:08:12.421Z,5.10
2019-04-04T03:10:49.237Z,5.00
2019-04-04T03:13:22.341Z,5.00
2019-04-04T03:15:55.994Z,4.90
2019-04-04T03:18:29.681Z,4.90
2019-04-04T03:21:03.404Z,4.90
2019-04-04T03:23:37.119Z,4.80
2019-04-04T03:26:10.818Z,4.70
2019-04-04T03:28:44.443Z,4.70
2019-04-04T03:31:18.173Z,4.80
2019-04-04T03:33:51.799Z,4.80
2019-04-04T03:36:25.526Z,4.80
2019-04-04T03:38:59.078Z,4.80
2019-04-04T03:41:35.858Z,4.70
2019-04-04T03:44:08.002Z,4.70
2019-04-04T03:46:41.647Z,4.70
2019-04-04T03:49:15.271Z,4.70
2019-04-04T03:51:48.995Z,4.70
2019-04-04T03:54:24.196Z,4.70
2019-04-04T03:56:57.853Z,4.80
2019-04-04T03:59:32.521Z,4.80
2019-04-04T04:02:06.929Z,4.80
2019-04-04T04:04:40.610Z,4.90
2019-04-04T04:07:15.320Z,5.00
2019-04-04T04:09:49.192Z,5.00
2019-04-04T04:12:22.773Z,5.00
2019-04-04T04:14:56.483Z,5.00
2019-04-04T04:17:30.202Z,5.00
2019-04-04T04:20:04.932Z,5.00
2019-04-04T04:22:38.595Z,4.90
2019-04-04T04:25:12.713Z,4.80
2019-04-04T04:27:48.479Z,4.70
2019-04-04T04:30:22.141Z,4.60
2019-04-04T04:32:57.274Z,4.60
2019-04-04T04:35:31.237Z,4.50
2019-04-04T04:38:04.896Z,4.60
2019-04-04T04:40:38.591Z,4.60
2019-04-04T04:43:15.269Z,4.60
2019-04-04T04:45:47.541Z,4.60
2019-04-04T04:48:21.176Z,4.70
2019-04-04T04:50:54.916Z,4.70
2019-04-04T04:53:28.608Z,4.80
2019-04-04T04:56:02.745Z,4.80
2019-04-04T04:58:36.424Z,4.80
2019-04-04T05:01:10.143Z,4.70
2019-04-04T05:03:43.821Z,4.60
2019-04-04T05:06:17.548Z,4.60
2019-04-04T05:08:51.193Z,4.50
2019-04-04T05:11:24.919Z,4.50
2019-04-04T05:13:58.848Z,4.40
2019-04-04T05:16:32.647Z,4.50
2019-04-04T05:19:06.359Z,4.50
2019-04-04T05:21:40.022Z,4.40
2019-04-04T05:24:13.651Z,4.50
2019-04-04T05:26:47.320Z,4.40
2019-04-04T05:29:21.059Z,4.40
2019-04-04T05:31:54.808Z,4.50
2019-04-04T05:34:30.388Z,4.50
2019-04-04T05:37:05.093Z,4.60
2019-04-04T05:39:39.260Z,4.60
2019-04-04T05:42:13.055Z,4.60
2019-04-04T05:44:46.692Z,4.70
2019-04-04T05:47:22.866Z,4.70
2019-04-04T05:49:55.729Z,4.70
2019-04-04T05:52:30.464Z,4.60
2019-04-04T05:55:05.165Z,4.60
2019-04-04T05:57:38.827Z,4.60
2019-04-04T06:00:13.907Z,4.70
2019-04-04T06:02:47.636Z,4.80
2019-04-04T06:05:21.297Z,4.90
2019-04-04T06:07:55.017Z,4.80
2019-04-04T06:10:28.767Z,4.80
2019-04-04T06:13:02.434Z,4.90
2019-04-04T06:15:36.068Z,5.00
2019-04-04T06:18:11.815Z,5.00
2019-04-04T06:20:48.325Z,4.90
2019-04-04T06:23:20.674Z,4.80
2019-04-04T06:25:54.369Z,4.80
2019-04-04T06:28:28.081Z,4.80
2019-04-04T06:31:01.740Z,4.90
2019-04-04T06:33:35.963Z,4.80
2019-04-04T06:36:09.642Z,4.80
2019-04-04T06:38:43.304Z,4.70
2019-04-04T06:41:16.971Z,4.80
2019-04-04T06:43:50.705Z,4.80
2019-04-04T06:46:24.380Z,4.70
2019-04-04T06:48:58.015Z,4.80
2019-04-04T06:51:31.744Z,4.80
2019-04-04T06:54:05.443Z,4.90
2019-04-04T06:56:39.191Z,5.00
2019-04-04T06:59:12.909Z,5.00
2019-04-04T07:01:46.619Z,5.00
2019-04-04T07:04:20.343Z,5.00
2019-04-04T07:06:54.008Z,4.80
2019-04-04T07:09:27.648Z,4.80
2019-04-04T07:12:01.314Z,4.70
2019-04-04T07:14:45.089Z,4.70
2019-04-04T07:17:10.380Z,4.60
2019-04-04T07:19:45.925Z,4.60
2019-04-04T07:22:20.617Z,4.70
2019-04-04T07:24:54.429Z,4.70
2019-04-04T07:27:28.519Z,4.70
2019-04-04T07:30:02.013Z,4.70
2019-04-04T07:32:35.676Z,4.70
2019-04-04T07:35:09.303Z,4.70
2019-04-04T07:37:43.035Z,4.70
2019-04-04T07:40:16.736Z,4.80
2019-04-04T07:42:50.388Z,4.90
2019-04-04T07:45:26.127Z,5.00
2019-04-04T07:47:59.428Z,5.00
2019-04-04T07:50:33.154Z,5.00
2019-04-04T07:53:06.865Z,5.10
2019-04-04T07:55:42.196Z,5.10
2019-04-04T07:58:16.019Z,5.20
2019-04-04T08:00:49.785Z,5.30
2019-04-04T08:03:23.550Z,5.30
2019-04-04T08:05:57.289Z,5.20
2019-04-04T08:08:30.864Z,5.20
2019-04-04T08:11:04.640Z,5.20
2019-04-04T08:13:38.375Z,5.20
2019-04-04T08:16:12.035Z,5.10
2019-04-04T08:18:45.731Z,5.10
2019-04-04T08:21:19.391Z,5.00
2019-04-04T08:23:53.088Z,5.00
2019-04-04T08:26:26.835Z,5.00
2019-04-04T08:29:00.536Z,5.10
2019-04-04T08:31:34.207Z,5.20
2019-04-04T08:34:07.853Z,5.10
2019-04-04T08:36:41.575Z,5.20
2019-04-04T08:39:15.173Z,5.30
2019-04-04T08:41:48.846Z,5.40
2019-04-04T08:44:22.551Z,5.30
2019-04-04T08:46:56.280Z,5.50
2019-04-04T08:49:29.935Z,5.70
2019-04-04T08:52:15.867Z,5.70
2019-04-04T08:54:38.887Z,5.60
2019-04-04T08:57:12.514Z,5.50
2019-04-04T08:59:46.236Z,5.60
2019-04-04T09:02:20.150Z,5.70
2019-04-04T09:04:53.898Z,5.90
2019-04-04T09:07:27.520Z,6.00
2019-04-04T09:10:01.180Z,6.10
2019-04-04T09:12:34.971Z,6.20
2019-04-04T09:15:08.932Z,6.30
2019-04-04T09:17:42.627Z,6.30
2019-04-04T09:20:16.593Z,6.20
2019-04-04T09:22:50.298Z,6.10
2019-04-04T09:25:24.022Z,5.90
2019-04-04T09:27:57.653Z,5.80
2019-04-04T09:30:31.313Z,5.90
2019-04-04T09:33:05.019Z,5.90
2019-04-04T09:35:38.671Z,5.90
2019-04-04T09:38:12.349Z,5.70
2019-04-04T09:40:46.056Z,5.70
2019-04-04T09:43:19.919Z,5.80
2019-04-04T09:45:53.658Z,5.80
2019-04-04T09:48:27.323Z,5.90
2019-04-04T09:51:01.031Z,6.00
2019-04-04T09:53:34.760Z,6.20
2019-04-04T09:56:08.414Z,6.20
2019-04-04T09:58:42.043Z,6.20
2019-04-04T10:01:15.700Z,6.20
2019-04-04T10:03:49.409Z,6.10
2019-04-04T10:06:23.002Z,6.20
2019-04-04T10:08:56.698Z,6.00
2019-04-04T10:11:30.417Z,5.90
2019-04-04T10:14:04.353Z,5.90
2019-04-04T10:16:38.098Z,5.80
2019-04-04T10:19:11.722Z,5.80
2019-04-04T10:21:45.383Z,5.80
2019-04-04T10:24:18.945Z,6.00
2019-04-04T10:26:52.678Z,6.10
2019-04-04T10:29:26.345Z,6.20
2019-04-04T10:32:00.114Z,6.30
2019-04-04T10:34:33.779Z,6.20
2019-04-04T10:37:07.416Z,6.10
2019-04-04T10:39:41.163Z,6.10
2019-04-04T10:42:14.913Z,6.10
2019-04-04T10:44:48.536Z,6.20
2019-04-04T10:47:22.132Z,6.30
2019-04-04T10:49:58.441Z,6.30
2019-04-04T10:52:31.090Z,6.20
2019-04-04T10:55:06.516Z,6.10
2019-04-04T10:57:40.173Z,6.00
2019-04-04T11:00:15.981Z,5.90
2019-04-04T11:02:49.971Z,5.80
2019-04-04T11:05:23.627Z,5.80
2019-04-04T11:08:00.262Z,5.80
2019-04-04T11:10:33.991Z,6.00
2019-04-04T11:13:08.204Z,6.00
2019-04-04T11:15:42.038Z,6.00
2019-04-04T11:18:15.665Z,6.00
2019-04-04T11:20:49.316Z,6.00
2019-04-04T11:23:22.936Z,6.00
2019-04-04T11:25:56.594Z,6.10
2019-04-04T11:28:30.305Z,6.30
2019-04-04T11:31:04.095Z,6.40
2019-04-04T11:33:37.726Z,6.40
2019-04-04T11:36:11.464Z,6.50
2019-04-04T11:38:45.036Z,6.40
2019-04-04T11:41:18.755Z,6.40
2019-04-04T11:43:52.381Z,6.50
2019-04-04T11:46:26.027Z,6.50
2019-04-04T11:48:59.671Z,6.60
2019-04-04T11:51:33.403Z,6.70
2019-04-04T11:54:06.951Z,6.70
2019-04-04T11:56:40.621Z,6.80
2019-04-04T11:59:14.327Z,6.70
2019-04-04T12:01:49.705Z,6.60
2019-04-04T12:04:23.341Z,6.60
2019-04-04T12:06:56.922Z,6.60
2019-04-04T12:09:30.543Z,6.70
2019-04-04T12:12:04.279Z,6.80
2019-04-04T12:14:37.898Z,6.90
2019-04-04T12:17:11.476Z,6.90
2019-04-04T12:19:45.148Z,7.00
2019-04-04T12:22:18.807Z,7.00
2019-04-04T12:24:53.579Z,7.00
2019-04-04T12:27:27.240Z,7.10
2019-04-04T12:30:00.884Z,7.10
2019-04-04T12:32:34.577Z,7.00
2019-04-04T12:35:08.370Z,6.90
2019-04-04T12:37:42.028Z,6.80
2019-04-04T12:40:20.703Z,6.70
2019-04-04T12:42:51.038Z,6.70
2019-04-04T12:45:24.781Z,6.90
2019-04-04T12:47:58.507Z,6.90
2019-04-04T12:50:32.136Z,6.90
2019-04-04T12:53:05.894Z,6.90
2019-04-04T12:55:39.639Z,6.80
2019-04-04T12:58:13.356Z,6.70
2019-04-04T13:00:46.996Z,6.80
2019-04-04T13:03:22.419Z,6.90
2019-04-04T13:05:56.021Z,7.00
2019-04-04T13:08:30.701Z,7.10
2019-04-04T13:11:04.770Z,7.00
2019-04-04T13:13:39.330Z,7.00
2019-04-04T13:16:13.022Z,7.00
2019-04-04T13:18:46.720Z,7.10
2019-04-04T13:21:21.635Z,7.20
2019-04-04T13:23:55.456Z,7.10
2019-04-04T13:26:29.104Z,7.10
2019-04-04T13:29:02.740Z,7.10
2019-04-04T13:31:36.403Z,7.20
2019-04-04T13:34:10.109Z,7.10
2019-04-04T13:36:43.778Z,7.20
2019-04-04T13:39:17.472Z,7.30
2019-04-04T13:41:51.143Z,7.50
2019-04-04T13:44:24.851Z,7.60
2019-04-04T13:46:58.582Z,7.50
2019-04-04T13:49:32.212Z,7.40
2019-04-04T13:52:05.939Z,7.30
2019-04-04T13:54:39.647Z,7.40
2019-04-04T13:57:13.964Z,7.40
2019-04-04T13:59:47.660Z,7.30
2019-04-04T14:02:21.347Z,7.20
2019-04-04T14:04:55.710Z,7.10
2019-04-04T14:07:29.575Z,7.20
2019-04-04T14:10:04.197Z,7.00
2019-04-04T14:12:37.858Z,7.00
2019-04-04T14:15:12.133Z,7.10
2019-04-04T14:17:45.851Z,7.20
2019-04-04T14:20:19.515Z,7.10
2019-04-04T14:22:53.257Z,7.20
2019-04-04T14:25:29.280Z,7.50
2019-04-04T14:28:02.340Z,7.50
2019-04-04T14:30:36.031Z,7.40
2019-04-04T14:33:09.682Z,7.30
2019-04-04T14:35:43.377Z,7.30
2019-04-04T14:38:17.027Z,7.40
2019-04-04T14:40:50.658Z,7.50
2019-04-04T14:43:24.387Z,7.40
2019-04-04T14:45:58.083Z,7.30
2019-04-04T14:48:31.745Z,7.20
2019-04-04T14:51:05.524Z,7.10
2019-04-04T14:53:39.188Z,7.00
2019-04-04T14:56:12.885Z,6.90
2019-04-04T14:58:46.620Z,6.90
2019-04-04T15:01:20.364Z,7.00
2019-04-04T15:03:53.957Z,7.00
2019-04-04T15:06:27.612Z,7.00
2019-04-04T15:09:01.307Z,6.90
2019-04-04T15:11:34.935Z,6.80
2019-04-04T15:14:09.240Z,6.80
2019-04-04T15:16:42.915Z,6.70
2019-04-04T15:19:16.506Z,6.60
2019-04-04T15:21:50.058Z,6.60
2019-04-04T15:24:23.722Z,6.60
2019-04-04T15:26:57.435Z,6.50
2019-04-04T15:29:30.963Z,6.50
2019-04-04T15:32:04.771Z,6.60
2019-04-04T15:34:38.670Z,6.60
2019-04-04T15:37:12.403Z,6.60
2019-04-04T15:39:46.326Z,6.50
2019-04-04T15:42:21.604Z,6.50
2019-04-04T15:44:55.327Z,6.50
2019-04-04T15:47:28.952Z,6.40
2019-04-04T15:50:02.531Z,6.30
2019-04-04T15:52:36.244Z,6.20
2019-04-04T15:55:09.968Z,6.10
2019-04-04T15:57:43.590Z,6.10
2019-04-04T16:00:17.484Z,6.10
2019-04-04T16:02:51.176Z,6.10
2019-04-04T16:05:24.909Z,6.00
2019-04-04T16:07:58.464Z,5.90
2019-04-04T16:10:32.187Z,5.90
2019-04-04T16:13:05.818Z,6.00
2019-04-04T16:15:39.551Z,5.90
2019-04-04T16:18:13.170Z,5.90
2019-04-04T16:20:46.831Z,5.90
2019-04-04T16:23:20.464Z,5.90
2019-04-04T16:25:54.259Z,5.90
2019-04-04T16:28:27.852Z,6.00
2019-04-04T16:31:01.713Z,5.90
2019-04-04T16:33:35.317Z,5.90
2019-04-04T16:36:09.010Z,5.90
2019-04-04T16:38:42.743Z,5.80
2019-04-04T16:41:16.407Z,5.80
2019-04-04T16:43:49.962Z,5.80
2019-04-04T16:46:23.625Z,5.80
2019-04-04T16:48:57.321Z,5.80
2019-04-04T16:51:30.996Z,5.90
2019-04-04T16:54:04.816Z,5.80
2019-04-04T16:56:38.432Z,5.80
2019-04-04T16:59:12.051Z,5.70
2019-04-04T17:01:45.791Z,5.60
2019-04-04T17:04:19.491Z,5.50
2019-04-04T17:06:54.703Z,5.60
2019-04-04T17:09:28.675Z,5.50
2019-04-04T17:12:14.186Z,5.50
2019-04-04T17:14:38.318Z,5.50
2019-04-04T17:17:11.941Z,5.50
2019-04-04T17:19:45.683Z,5.50
2019-04-04T17:22:19.316Z,5.50
2019-04-04T17:24:53.066Z,5.50
2019-04-04T17:27:26.867Z,5.50
2019-04-04T17:30:00.616Z,5.40
2019-04-04T17:32:34.303Z,5.40
2019-04-04T17:35:08.655Z,5.40
2019-04-04T17:37:42.467Z,5.40
2019-04-04T17:40:16.395Z,5.40
2019-04-04T17:42:50.019Z,5.40
2019-04-04T17:45:24.071Z,5.40
2019-04-04T17:47:58.075Z,5.40
2019-04-04T17:50:32.342Z,5.40
2019-04-04T17:53:06.453Z,5.30
2019-04-04T17:55:40.232Z,5.40
2019-04-04T17:58:13.960Z,5.40
2019-04-04T18:00:47.703Z,5.40
2019-04-04T18:03:21.410Z,5.40
2019-04-04T18:05:55.151Z,5.40
2019-04-04T18:08:28.935Z,5.40
2019-04-04T18:11:02.673Z,5.40
2019-04-04T18:13:36.368Z,5.40
2019-04-04T18:16:10.040Z,5.40
2019-04-04T18:18:43.683Z,5.30
2019-04-04T18:21:17.336Z,5.30
2019-04-04T18:23:50.968Z,5.30
2019-04-04T18:26:24.709Z,5.20
2019-04-04T18:28:58.411Z,5.30
2019-04-04T18:31:32.005Z,5.30
2019-04-04T18:34:08.121Z,5.30
2019-04-04T18:36:41.468Z,5.20
2019-04-04T18:39:15.211Z,5.20
2019-04-04T18:41:48.983Z,5.20
2019-04-04T18:44:22.545Z,5.20
2019-04-04T18:46:56.281Z,5.20
2019-04-04T18:49:30.000Z,5.20
2019-04-04T18:52:03.728Z,5.20
2019-04-04T18:54:37.436Z,5.20
2019-04-04T18:57:13.162Z,5.20
2019-04-04T18:59:46.641Z,5.20
2019-04-04T19:02:20.296Z,5.10
2019-04-04T19:04:53.942Z,5.10
2019-04-04T19:07:38.674Z,5.10
2019-04-04T19:10:03.543Z,5.10
2019-04-04T19:12:37.271Z,5.10
2019-04-04T19:15:12.160Z,5.10
2019-04-04T19:17:45.898Z,5.10
2019-04-04T19:20:19.680Z,5.00
2019-04-04T19:22:54.648Z,4.90
2019-04-04T19:25:28.377Z,4.90
2019-04-04T19:28:02.001Z,4.90
2019-04-04T19:30:35.813Z,4.90
2019-04-04T19:33:09.516Z,4.80
2019-04-04T19:35:45.215Z,4.80
2019-04-04T19:38:18.892Z,4.80
2019-04-04T19:40:53.006Z,4.80
2019-04-04T19:43:26.745Z,4.70
2019-04-04T19:46:00.552Z,4.70
2019-04-04T19:48:34.255Z,4.80
2019-04-04T19:51:07.918Z,4.70
2019-04-04T19:53:41.623Z,4.70
2019-04-04T19:56:15.294Z,4.70
2019-04-04T19:58:49.002Z,4.70
2019-04-04T20:01:25.519Z,4.70
2019-04-04T20:03:58.110Z,4.70
2019-04-04T20:06:31.848Z,4.60
2019-04-04T20:09:07.031Z,4.60
2019-04-04T20:11:40.772Z,4.60
2019-04-04T20:14:14.408Z,4.60
2019-04-04T20:16:48.682Z,4.50
2019-04-04T20:19:22.416Z,4.50
2019-04-04T20:21:56.568Z,4.50
2019-04-04T20:24:30.509Z,4.50
2019-04-04T20:27:04.140Z,4.50
2019-04-04T20:29:37.811Z,4.50
2019-04-04T20:32:11.545Z,4.50
2019-04-04T20:34:45.195Z,4.50
2019-04-04T20:37:18.860Z,4.50
2019-04-04T20:39:52.563Z,4.50
2019-04-04T20:42:26.308Z,4.50
2019-04-04T20:45:00.006Z,4.50
2019-04-04T20:47:34.012Z,4.40
2019-04-04T20:50:08.119Z,4.40
2019-04-04T20:52:41.784Z,4.40
2019-04-04T20:55:15.497Z,4.40
2019-04-04T20:57:49.240Z,4.40
2019-04-04T21:00:22.872Z,4.30
2019-04-04T21:02:56.539Z,4.30
2019-04-04T21:05:30.175Z,4.30
2019-04-04T21:08:03.901Z,4.40
2019-04-04T21:10:37.541Z,4.40
2019-04-04T21:13:11.279Z,4.40
2019-04-04T21:15:44.987Z,4.30
2019-04-04T21:18:18.643Z,4.40
2019-04-04T21:20:52.344Z,4.30
2019-04-04T21:23:26.011Z,4.30
2019-04-04T21:25:59.642Z,4.30
2019-04-04T21:28:33.372Z,4.30
2019-04-04T21:31:07.068Z,4.30
2019-04-04T21:33:40.727Z,4.30
2019-04-04T21:36:14.359Z,4.30
2019-04-04T21:38:48.082Z,4.30
2019-04-04T21:41:21.791Z,4.40
2019-04-04T21:44:07.901Z,4.40
2019-04-04T21:46:30.816Z,4.40
2019-04-04T21:49:04.556Z,4.40
2019-04-04T21:51:38.222Z,4.40
2019-04-04T21:54:11.795Z,4.40
2019-04-04T21:56:45.526Z,4.30
2019-04-04T21:59:19.335Z,4.30
2019-04-04T22:01:52.965Z,4.30
2019-04-04T22:04:26.706Z,4.30
2019-04-04T22:07:00.429Z,4.30
2019-04-04T22:09:34.160Z,4.40
2019-04-04T22:12:07.879Z,4.40
2019-04-04T22:14:41.627Z,4.40
2019-04-04T22:17:15.368Z,4.30
2019-04-04T22:19:48.997Z,4.30
2019-04-04T22:22:22.665Z,4.30
2019-04-04T22:24:56.288Z,4.20
2019-04-04T22:27:30.033Z,4.20
2019-04-04T22:30:05.737Z,4.20
2019-04-04T22:32:39.469Z,4.20
2019-04-04T22:35:13.172Z,4.20
2019-04-04T22:37:46.976Z,4.20
2019-04-04T22:40:20.628Z,4.10
2019-04-04T22:42:54.363Z,4.10
2019-04-04T22:45:28.085Z,4.10
2019-04-04T22:48:01.899Z,4.00
2019-04-04T22:50:35.592Z,4.00
2019-04-04T22:53:09.339Z,4.10
2019-04-04T22:55:42.992Z,4.10
2019-04-04T22:58:27.644Z,4.10
2019-04-04T23:00:51.995Z,4.10
2019-04-04T23:03:26.592Z,4.10
2019-04-04T23:06:00.345Z,4.20
2019-04-04T23:08:33.986Z,4.20
2019-04-04T23:11:07.780Z,4.20
2019-04-04T23:13:41.536Z,4.20
2019-04-04T23:16:15.269Z,4.20
2019-04-04T23:18:48.982Z,4.30
2019-04-04T23:21:22.722Z,4.20
2019-04-04T23:23:56.477Z,4.20
2019-04-04T23:26:30.176Z,4.20
2019-04-04T23:29:03.858Z,4.30
2019-04-04T23:31:37.560Z,4.20
2019-04-04T23:34:11.232Z,4.20
2019-04-04T23:36:44.948Z,4.20
2019-04-04T23:39:18.599Z,4.20
2019-04-04T23:41:52.231Z,4.20
2019-04-04T23:44:25.963Z,4.20
2019-04-04T23:46:59.620Z,4.20
2019-04-04T23:49:33.291Z,4.20
2019-04-04T23:52:06.919Z,4.20
2019-04-04T23:54:40.579Z,4.30
2019-04-04T23:57:14.220Z,4.20
2019-04-04T23:59:47.887Z,4.10
